createdAt,value
2023-03-20T00:01:03.430Z,100522.44
2023-03-20T00:04:05.292Z,100530.69
2023-03-20T00:07:10.672Z,100517.97
2023-03-20T00:10:12.383Z,100510.75
2023-03-20T00:13:22.786Z,100518.00
2023-03-20T00:16:27.899Z,100506.41
2023-03-20T00:19:31.039Z,100507.06
2023-03-20T00:22:33.014Z,100496.69
2023-03-20T00:25:36.602Z,100495.44
2023-03-20T00:28:42.064Z,100494.56
2023-03-20T00:31:43.955Z,100495.28
2023-03-20T00:34:45.880Z,100492.25
2023-03-20T00:37:47.631Z,100488.28
2023-03-20T00:40:49.377Z,100493.72
2023-03-20T00:43:54.954Z,100493.06
2023-03-20T00:47:02.705Z,100481.94
2023-03-20T00:50:15.320Z,100486.25
2023-03-20T00:53:16.962Z,100487.53
2023-03-20T00:56:35.178Z,100477.53
2023-03-20T00:59:40.980Z,100481.78
2023-03-20T01:02:42.622Z,100484.66
2023-03-20T01:05:45.891Z,100479.41
2023-03-20T01:08:48.946Z,100476.47
2023-03-20T01:11:51.514Z,100472.62
2023-03-20T01:14:56.834Z,100469.72
2023-03-20T01:17:58.662Z,100466.72
2023-03-20T01:21:00.421Z,100467.41
2023-03-20T01:24:02.073Z,100462.84
2023-03-20T01:27:06.084Z,100457.59
2023-03-20T01:30:21.311Z,100457.09
2023-03-20T01:33:25.911Z,100464.88
2023-03-20T01:36:27.829Z,100456.56
2023-03-20T01:39:34.258Z,100475.13
2023-03-20T01:42:36.445Z,100481.37
2023-03-20T01:45:39.276Z,100490.63
2023-03-20T01:48:50.174Z,100475.72
2023-03-20T01:51:52.496Z,100468.41
2023-03-20T01:54:54.368Z,100470.22
2023-03-20T01:58:00.702Z,100481.88
2023-03-20T02:01:03.866Z,100479.91
2023-03-20T02:04:06.553Z,100479.94
2023-03-20T02:07:10.168Z,100462.78
2023-03-20T02:10:16.103Z,100464.41
2023-03-20T02:13:18.570Z,100460.44
2023-03-20T02:16:20.754Z,100464.28
2023-03-20T02:19:57.596Z,100459.28
2023-03-20T02:23:14.315Z,100474.81
2023-03-20T02:27:02.252Z,100466.00
2023-03-20T02:30:15.194Z,100464.94
2023-03-20T02:33:36.195Z,100460.22
2023-03-20T02:36:53.003Z,100464.66
2023-03-20T02:40:09.258Z,100457.09
2023-03-20T02:43:33.522Z,100449.38
2023-03-20T02:46:35.171Z,100451.13
2023-03-20T02:49:48.337Z,100448.47
2023-03-20T02:53:06.672Z,100447.53
2023-03-20T02:56:35.024Z,100445.56
2023-03-20T02:59:48.575Z,100442.03
2023-03-20T03:03:02.999Z,100435.75
2023-03-20T03:06:16.751Z,100437.53
2023-03-20T03:09:22.713Z,100433.56
2023-03-20T03:12:32.123Z,100439.25
2023-03-20T03:15:43.968Z,100441.25
2023-03-20T03:18:46.725Z,100438.66
2023-03-20T03:21:49.093Z,100442.16
2023-03-20T03:24:53.673Z,100440.13
2023-03-20T03:28:07.677Z,100444.75
2023-03-20T03:31:14.384Z,100431.31
2023-03-20T03:34:18.266Z,100428.25
2023-03-20T03:37:48.887Z,100419.34
2023-03-20T03:41:16.564Z,100428.41
2023-03-20T03:44:27.755Z,100426.25
2023-03-20T03:47:35.565Z,100421.94
2023-03-20T03:50:59.576Z,100434.19
2023-03-20T03:54:09.171Z,100435.00
2023-03-20T03:57:13.523Z,100429.94
2023-03-20T04:00:19.463Z,100435.88
2023-03-20T04:03:27.150Z,100438.91
2023-03-20T04:06:29.678Z,100438.06
2023-03-20T04:09:31.326Z,100432.16
2023-03-20T04:12:39.000Z,100436.22
2023-03-20T04:15:40.679Z,100443.16
2023-03-20T04:18:42.678Z,100435.44
2023-03-20T04:21:45.737Z,100441.09
2023-03-20T04:24:47.373Z,100441.41
2023-03-20T04:27:49.151Z,100434.56
2023-03-20T04:30:58.564Z,100427.72
2023-03-20T04:34:00.246Z,100436.66
2023-03-20T04:37:02.504Z,100432.66
2023-03-20T04:40:04.675Z,100434.44
2023-03-20T04:43:06.724Z,100435.62
2023-03-20T04:46:08.441Z,100448.06
2023-03-20T04:49:10.407Z,100448.84
2023-03-20T04:52:12.261Z,100452.47
2023-03-20T04:55:13.983Z,100450.63
2023-03-20T04:58:15.749Z,100455.69
2023-03-20T05:01:17.495Z,100459.38
2023-03-20T05:04:19.202Z,100465.59
2023-03-20T05:07:21.619Z,100465.34
2023-03-20T05:10:23.307Z,100473.00
2023-03-20T05:13:24.953Z,100467.75
2023-03-20T05:16:26.743Z,100473.88
2023-03-20T05:19:28.471Z,100485.81
2023-03-20T05:22:30.115Z,100478.72
2023-03-20T05:25:31.818Z,100480.13
2023-03-20T05:28:33.610Z,100485.66
2023-03-20T05:31:35.501Z,100489.44
2023-03-20T05:34:37.145Z,100485.50
2023-03-20T05:37:39.593Z,100486.47
2023-03-20T05:40:44.022Z,100484.28
2023-03-20T05:43:45.698Z,100486.94
2023-03-20T05:46:47.374Z,100487.91
2023-03-20T05:49:49.018Z,100487.75
2023-03-20T05:52:50.807Z,100482.41
2023-03-20T05:55:52.633Z,100486.19
2023-03-20T05:58:54.340Z,100488.00
2023-03-20T06:01:55.981Z,100481.97
2023-03-20T06:04:57.640Z,100486.00
2023-03-20T06:07:59.301Z,100487.03
2023-03-20T06:11:01.006Z,100489.62
2023-03-20T06:14:02.724Z,100487.66
2023-03-20T06:17:04.424Z,100489.81
2023-03-20T06:20:06.743Z,100485.72
2023-03-20T06:23:08.439Z,100496.44
2023-03-20T06:26:10.450Z,100490.22
2023-03-20T06:29:12.219Z,100493.34
2023-03-20T06:32:14.841Z,100492.72
2023-03-20T06:35:18.195Z,100489.44
2023-03-20T06:38:20.006Z,100487.06
2023-03-20T06:41:33.670Z,100488.22
2023-03-20T06:44:36.021Z,100497.47
2023-03-20T06:47:37.865Z,100499.66
2023-03-20T06:50:39.526Z,100497.41
2023-03-20T06:53:44.059Z,100498.69
2023-03-20T06:56:45.704Z,100499.19
2023-03-20T06:59:47.810Z,100498.59
2023-03-20T07:02:49.618Z,100498.28
2023-03-20T07:05:51.329Z,100506.72
2023-03-20T07:08:53.474Z,100503.28
2023-03-20T07:11:55.134Z,100502.31
2023-03-20T07:14:57.060Z,100507.22
2023-03-20T07:17:58.842Z,100512.56
2023-03-20T07:21:03.272Z,100508.69
2023-03-20T07:24:06.677Z,100513.97
2023-03-20T07:27:08.378Z,100510.03
2023-03-20T07:30:11.050Z,100502.88
2023-03-20T07:33:12.715Z,100518.47
2023-03-20T07:36:14.462Z,100528.09
2023-03-20T07:39:16.893Z,100524.31
2023-03-20T07:42:18.623Z,100526.94
2023-03-20T07:45:20.433Z,100533.91
2023-03-20T07:48:22.104Z,100535.78
2023-03-20T07:51:24.505Z,100541.13
2023-03-20T07:54:26.417Z,100534.12
2023-03-20T07:57:28.206Z,100534.25
2023-03-20T08:00:30.074Z,100530.09
2023-03-20T08:03:32.413Z,100526.91
2023-03-20T08:06:34.317Z,100533.31
2023-03-20T08:09:36.660Z,100523.12
2023-03-20T08:12:38.322Z,100523.69
2023-03-20T08:15:40.268Z,100528.59
2023-03-20T08:18:42.637Z,100529.25
2023-03-20T08:21:44.362Z,100531.09
2023-03-20T08:24:46.068Z,100533.94
2023-03-20T08:27:48.501Z,100525.31
2023-03-20T08:30:50.302Z,100527.28
2023-03-20T08:33:52.222Z,100522.09
2023-03-20T08:36:53.863Z,100526.31
2023-03-20T08:39:55.565Z,100532.19
2023-03-20T08:42:57.626Z,100527.88
2023-03-20T08:45:59.322Z,100527.59
2023-03-20T08:49:01.131Z,100529.34
2023-03-20T08:52:02.897Z,100522.75
2023-03-20T08:55:04.927Z,100525.88
2023-03-20T08:58:06.800Z,100529.00
2023-03-20T09:01:10.261Z,100524.31
2023-03-20T09:04:13.414Z,100519.75
2023-03-20T09:07:16.190Z,100526.09
2023-03-20T09:10:18.050Z,100536.38
2023-03-20T09:13:27.096Z,100530.56
2023-03-20T09:16:29.511Z,100543.75
2023-03-20T09:19:31.928Z,100529.09
2023-03-20T09:22:33.708Z,100530.53
2023-03-20T09:25:35.797Z,100537.50
2023-03-20T09:28:37.616Z,100530.50
2023-03-20T09:31:39.366Z,100532.25
2023-03-20T09:34:41.136Z,100533.56
2023-03-20T09:37:43.059Z,100530.41
2023-03-20T09:40:55.950Z,100529.28
2023-03-20T09:44:06.775Z,100532.59
2023-03-20T09:47:20.691Z,100530.88
2023-03-20T09:50:39.154Z,100525.44
2023-03-20T09:53:44.999Z,100527.06
2023-03-20T09:56:46.746Z,100536.59
2023-03-20T09:59:50.957Z,100528.84
2023-03-20T10:02:58.727Z,100526.44
2023-03-20T10:06:04.020Z,100534.91
2023-03-20T10:09:22.700Z,100539.09
2023-03-20T10:12:45.806Z,100523.22
2023-03-20T10:15:53.994Z,100521.84
2023-03-20T10:19:24.664Z,100530.16
2023-03-20T10:22:34.191Z,100515.16
2023-03-20T10:25:42.441Z,100510.19
2023-03-20T10:29:16.953Z,100516.56
2023-03-20T10:32:44.625Z,100519.94
2023-03-20T10:36:04.832Z,100519.59
2023-03-20T10:39:23.584Z,100509.94
2023-03-20T10:42:33.120Z,100511.81
2023-03-20T10:45:48.525Z,100506.00
2023-03-20T10:49:25.665Z,100509.25
2023-03-20T10:52:33.789Z,100511.03
2023-03-20T10:55:40.507Z,100501.31
2023-03-20T10:58:47.239Z,100499.09
2023-03-20T11:01:48.956Z,100500.00
2023-03-20T11:04:50.687Z,100500.16
2023-03-20T11:08:02.160Z,100497.59
2023-03-20T11:11:04.977Z,100498.44
2023-03-20T11:14:18.754Z,100499.47
2023-03-20T11:17:20.595Z,100502.31
2023-03-20T11:20:22.613Z,100483.75
2023-03-20T11:23:32.862Z,100476.41
2023-03-20T11:26:38.259Z,100471.88
2023-03-20T11:29:44.417Z,100480.19
2023-03-20T11:32:49.673Z,100475.72
2023-03-20T11:35:54.009Z,100468.69
2023-03-20T11:39:21.633Z,100478.66
2023-03-20T11:42:26.094Z,100464.81
2023-03-20T11:45:35.770Z,100463.22
2023-03-20T11:48:44.392Z,100467.84
2023-03-20T11:51:46.214Z,100458.16
2023-03-20T11:54:50.952Z,100452.34
2023-03-20T11:57:58.046Z,100450.97
2023-03-20T12:01:02.777Z,100446.25
2023-03-20T12:04:11.487Z,100443.13
2023-03-20T12:07:19.581Z,100438.69
2023-03-20T12:10:22.127Z,100437.97
2023-03-20T12:13:33.241Z,100428.22
2023-03-20T12:16:37.225Z,100424.34
2023-03-20T12:19:41.508Z,100425.53
2023-03-20T12:22:53.215Z,100421.41
2023-03-20T12:26:14.093Z,100422.06
2023-03-20T12:29:27.967Z,100420.66
2023-03-20T12:33:28.310Z,100414.66
2023-03-20T12:36:37.259Z,100424.69
2023-03-20T12:39:44.958Z,100418.34
2023-03-20T12:43:10.283Z,100413.53
2023-03-20T12:46:29.345Z,100420.31
2023-03-20T12:49:52.564Z,100418.59
2023-03-20T12:53:12.167Z,100409.09
2023-03-20T12:56:43.902Z,100408.25
2023-03-20T12:59:48.038Z,100416.16
2023-03-20T13:02:49.691Z,100411.75
2023-03-20T13:06:19.368Z,100403.88
2023-03-20T13:09:58.052Z,100396.84
2023-03-20T13:13:18.546Z,100405.59
2023-03-20T13:16:23.004Z,100401.22
2023-03-20T13:19:28.710Z,100395.06
2023-03-20T13:22:49.068Z,100402.03
2023-03-20T13:26:02.890Z,100393.28
2023-03-20T13:29:25.823Z,100392.41
2023-03-20T13:32:29.023Z,100389.72
2023-03-20T13:35:48.858Z,100391.44
2023-03-20T13:38:54.317Z,100384.50
2023-03-20T13:41:56.107Z,100388.91
2023-03-20T13:45:05.990Z,100388.00
2023-03-20T13:48:19.860Z,100386.22
2023-03-20T13:51:54.816Z,100385.16
2023-03-20T13:55:02.345Z,100374.84
2023-03-20T13:58:12.754Z,100378.59
2023-03-20T14:01:29.822Z,100382.56
2023-03-20T14:04:31.982Z,100372.78
2023-03-20T14:07:37.788Z,100373.16
2023-03-20T14:10:39.925Z,100376.00
2023-03-20T14:13:47.588Z,100372.63
2023-03-20T14:16:49.148Z,100371.19
2023-03-20T14:19:51.616Z,100375.44
2023-03-20T14:22:53.173Z,100361.97
2023-03-20T14:25:55.328Z,100372.03
2023-03-20T14:29:02.641Z,100364.25
2023-03-20T14:32:06.189Z,100362.53
2023-03-20T14:35:13.926Z,100366.94
2023-03-20T14:38:23.947Z,100365.16
2023-03-20T14:41:28.557Z,100366.94
2023-03-20T14:44:46.520Z,100361.66
2023-03-20T14:48:07.082Z,100356.38
2023-03-20T14:51:11.606Z,100356.38
2023-03-20T14:54:22.045Z,100356.31
2023-03-20T14:57:35.740Z,100355.41
2023-03-20T15:00:46.028Z,100358.03
2023-03-20T15:03:50.268Z,100351.06
2023-03-20T15:06:54.524Z,100356.34
2023-03-20T15:09:59.508Z,100348.47
2023-03-20T15:13:04.136Z,100353.75
2023-03-20T15:16:07.156Z,100348.28
2023-03-20T15:19:16.893Z,100352.63
2023-03-20T15:22:20.077Z,100356.16
2023-03-20T15:25:23.065Z,100357.97
2023-03-20T15:28:26.067Z,100354.50
2023-03-20T15:31:30.384Z,100364.09
2023-03-20T15:34:33.131Z,100363.13
2023-03-20T15:37:34.736Z,100365.72
2023-03-20T15:40:49.996Z,100355.13
2023-03-20T15:43:52.734Z,100354.16
2023-03-20T15:47:07.519Z,100358.47
2023-03-20T15:50:12.911Z,100359.25
2023-03-20T15:53:17.129Z,100366.19
2023-03-20T15:56:20.118Z,100357.34
2023-03-20T15:59:24.858Z,100360.75
2023-03-20T16:02:27.967Z,100368.53
2023-03-20T16:05:30.433Z,100375.56
2023-03-20T16:08:33.246Z,100366.66
2023-03-20T16:11:39.297Z,100373.59
2023-03-20T16:14:41.169Z,100377.84
2023-03-20T16:17:42.935Z,100386.47
2023-03-20T16:20:49.633Z,100380.28
2023-03-20T16:23:53.638Z,100385.47
2023-03-20T16:26:55.924Z,100382.75
2023-03-20T16:29:57.633Z,100388.84
2023-03-20T16:33:00.951Z,100385.16
2023-03-20T16:36:02.830Z,100386.84
2023-03-20T16:39:24.575Z,100395.41
2023-03-20T16:42:28.472Z,100392.75
2023-03-20T16:45:31.562Z,100397.84
2023-03-20T16:48:34.099Z,100402.13
2023-03-20T16:51:36.318Z,100403.69
2023-03-20T16:54:38.645Z,100413.25
2023-03-20T16:57:40.216Z,100404.44
2023-03-20T17:00:43.731Z,100403.59
2023-03-20T17:03:52.225Z,100411.19
2023-03-20T17:06:55.479Z,100405.81
2023-03-20T17:10:24.552Z,100409.44
2023-03-20T17:13:26.981Z,100413.53
2023-03-20T17:16:28.733Z,100413.91
2023-03-20T17:19:32.015Z,100411.66
2023-03-20T17:22:34.078Z,100414.44
2023-03-20T17:25:36.129Z,100414.81
2023-03-20T17:28:37.819Z,100414.06
2023-03-20T17:31:39.759Z,100409.69
2023-03-20T17:34:43.318Z,100416.16
2023-03-20T17:37:45.347Z,100413.28
2023-03-20T17:40:47.900Z,100418.34
2023-03-20T17:43:51.485Z,100417.56
2023-03-20T17:46:58.214Z,100417.41
2023-03-20T17:50:01.343Z,100416.78
2023-03-20T17:53:03.512Z,100413.09
2023-03-20T17:56:15.833Z,100419.56
2023-03-20T17:59:17.445Z,100416.28
2023-03-20T18:02:19.345Z,100420.37
2023-03-20T18:05:21.320Z,100410.69
2023-03-20T18:08:24.626Z,100416.22
2023-03-20T18:11:26.718Z,100417.25
2023-03-20T18:14:30.181Z,100410.97
2023-03-20T18:17:32.201Z,100411.19
2023-03-20T18:20:35.932Z,100417.03
2023-03-20T18:23:38.383Z,100414.81
2023-03-20T18:26:40.617Z,100411.50
2023-03-20T18:29:43.181Z,100412.56
2023-03-20T18:32:45.677Z,100424.25
2023-03-20T18:35:49.156Z,100426.87
2023-03-20T18:38:52.296Z,100427.69
2023-03-20T18:41:54.546Z,100434.72
2023-03-20T18:44:56.641Z,100432.56
2023-03-20T18:47:59.673Z,100437.75
2023-03-20T18:51:03.270Z,100433.41
2023-03-20T18:54:05.710Z,100428.56
2023-03-20T18:57:11.843Z,100439.28
2023-03-20T19:00:14.766Z,100436.28
2023-03-20T19:03:17.241Z,100439.84
2023-03-20T19:06:21.468Z,100439.00
2023-03-20T19:09:23.782Z,100438.09
2023-03-20T19:12:26.405Z,100443.22
2023-03-20T19:15:31.022Z,100434.13
2023-03-20T19:18:33.202Z,100437.00
2023-03-20T19:21:35.722Z,100437.37
2023-03-20T19:24:38.293Z,100430.09
2023-03-20T19:27:43.638Z,100433.53
2023-03-20T19:30:45.963Z,100432.66
2023-03-20T19:33:49.756Z,100431.44
2023-03-20T19:36:52.606Z,100432.97
2023-03-20T19:39:54.674Z,100435.16
2023-03-20T19:43:02.533Z,100428.69
2023-03-20T19:46:05.570Z,100426.97
2023-03-20T19:49:17.954Z,100431.38
2023-03-20T19:52:29.130Z,100435.47
2023-03-20T19:55:33.385Z,100426.38
2023-03-20T19:58:36.143Z,100426.91
2023-03-20T20:01:38.668Z,100427.69
2023-03-20T20:04:41.789Z,100422.31
2023-03-20T20:11:06.122Z,100420.28
2023-03-20T20:14:10.055Z,100431.03
2023-03-20T20:17:14.163Z,100424.19
2023-03-20T20:20:20.512Z,100424.25
2023-03-20T20:23:26.403Z,100427.34
2023-03-20T20:26:31.416Z,100425.97
2023-03-20T20:29:36.908Z,100428.94
2023-03-20T20:32:40.191Z,100424.25
2023-03-20T20:36:08.035Z,100429.09
2023-03-20T20:39:04.912Z,100431.31
2023-03-20T20:42:07.417Z,100428.03
2023-03-20T20:45:12.408Z,100424.13
2023-03-20T20:48:14.809Z,100422.78
2023-03-20T20:51:16.782Z,100420.06
2023-03-20T20:54:19.654Z,100422.06
2023-03-20T20:57:21.830Z,100418.06
2023-03-20T21:00:37.062Z,100428.03
2023-03-20T21:03:43.350Z,100423.34
2023-03-20T21:07:13.201Z,100414.13
2023-03-20T21:10:08.017Z,100413.09
2023-03-20T21:13:10.774Z,100412.69
2023-03-20T21:16:14.593Z,100414.44
2023-03-20T21:19:16.339Z,100410.47
2023-03-20T21:22:20.534Z,100408.19
2023-03-20T21:25:36.388Z,100416.37
2023-03-20T21:28:41.103Z,100418.84
2023-03-20T21:31:43.113Z,100404.22
2023-03-20T21:34:44.726Z,100409.84
2023-03-20T21:41:09.164Z,100406.69
2023-03-20T21:44:16.584Z,100403.66
2023-03-20T21:48:09.291Z,100403.72
2023-03-20T22:11:42.473Z,100418.25
2023-03-20T22:18:12.242Z,100409.66
2023-03-20T22:25:04.819Z,100406.97
2023-03-20T22:28:15.866Z,100408.03
2023-03-20T22:32:02.339Z,100410.06
2023-03-20T22:45:00.006Z,100404.31
2023-03-20T22:48:02.272Z,100409.97
2023-03-20T22:51:03.856Z,100409.06
2023-03-20T22:54:05.546Z,100412.28
2023-03-20T22:57:07.145Z,100416.63
2023-03-20T23:00:10.466Z,100411.03
2023-03-20T23:03:19.993Z,100410.13
2023-03-20T23:06:27.627Z,100411.13
2023-03-20T23:09:29.181Z,100413.37
2023-03-20T23:12:30.685Z,100409.28
2023-03-20T23:15:32.271Z,100409.50
2023-03-20T23:18:33.827Z,100419.13
2023-03-20T23:21:35.295Z,100414.22
2023-03-20T23:24:36.854Z,100415.69
2023-03-20T23:27:38.339Z,100415.78
2023-03-20T23:30:56.735Z,100419.94
2023-03-20T23:34:01.300Z,100413.66
2023-03-20T23:37:03.035Z,100412.91
2023-03-20T23:40:04.889Z,100414.84
2023-03-20T23:43:06.387Z,100410.50
2023-03-20T23:46:08.464Z,100406.09
2023-03-20T23:49:09.979Z,100409.44
2023-03-20T23:52:12.359Z,100403.88
2023-03-20T23:55:14.619Z,100414.25
2023-03-20T23:58:16.496Z,100407.38
